Time;durP1;ratioP1;P1;durP2;ratioP2;P2;SDS_P1;SDS_P2;PMS_P1;PMS_P2;Temp;Humidity;BMP_temperature;BMP_pressure;BME280_temperature;BME280_humidity;BME280_pressure;Samples;Min_cycle;Max_cycle;Signal;HPM_P1;HPM_P2
2023/06/21 04:30:14;;;;;;;6.47;3.10;;;17.00;76.00;;;;;;6010137;23;20032;-82
2023/06/21 04:32:46;;;;;;;8.52;3.60;;;17.00;75.50;;;;;;4967397;28;20081;-82
2023/06/21 04:35:21;;;;;;;6.03;2.90;;;17.00;76.40;;;;;;4955481;28;20614;-82
2023/06/21 04:37:47;;;;;;;5.38;2.80;;;17.00;76.30;;;;;;4972951;28;20531;-82
2023/06/21 04:40:18;;;;;;;7.25;3.33;;;17.00;75.90;;;;;;4957820;28;20031;-82
2023/06/21 04:42:54;;;;;;;6.10;3.08;;;17.00;75.90;;;;;;4954159;29;20062;-81
2023/06/21 04:45:20;;;;;;;7.57;3.08;;;17.10;76.10;;;;;;4938278;28;20035;-83
2023/06/21 04:47:48;;;;;;;5.82;3.10;;;17.10;76.10;;;;;;4973375;28;20045;-83
2023/06/21 04:50:19;;;;;;;7.15;3.35;;;17.10;76.10;;;;;;4955123;28;20038;-82
2023/06/21 04:52:47;;;;;;;6.68;3.25;;;17.10;76.10;;;;;;4971696;28;20042;-80
2023/06/21 04:55:18;;;;;;;6.40;3.05;;;17.10;76.40;;;;;;4955522;28;20512;-82
2023/06/21 04:57:47;;;;;;;6.03;2.78;;;17.10;75.80;;;;;;4949110;29;20032;-81
2023/06/21 05:00:14;;;;;;;5.70;2.80;;;17.20;76.00;;;;;;4953745;29;20028;-86
2023/06/21 05:02:39;;;;;;;6.40;2.95;;;17.10;76.40;;;;;;4964402;28;20019;-86
2023/06/21 05:05:05;;;;;;;6.18;3.13;;;17.10;76.40;;;;;;4959505;28;20038;-88
2023/06/21 05:07:31;;;;;;;5.63;2.95;;;17.10;76.20;;;;;;4985542;28;20038;-79
2023/06/21 05:09:57;;;;;;;5.68;2.88;;;17.10;76.40;;;;;;4978561;28;20046;-76
2023/06/21 05:12:22;;;;;;;6.07;3.05;;;17.20;76.30;;;;;;4972168;28;20174;-78
2023/06/21 05:14:48;;;;;;;6.60;2.78;;;17.30;76.40;;;;;;4968429;28;20505;-78
2023/06/21 05:17:15;;;;;;;5.68;2.85;;;17.30;76.00;;;;;;4976406;28;20404;-77
2023/06/21 05:19:42;;;;;;;5.97;3.25;;;17.30;76.00;;;;;;4980406;28;20440;-78
2023/06/21 05:22:08;;;;;;;7.10;3.42;;;17.30;75.90;;;;;;4967957;28;20027;-78
2023/06/21 05:24:34;;;;;;;8.48;3.63;;;17.30;76.30;;;;;;4974927;28;20086;-77
2023/06/21 05:26:59;;;;;;;7.05;3.33;;;17.30;76.50;;;;;;4976304;28;20506;-77
2023/06/21 05:29:25;;;;;;;6.18;3.20;;;17.40;76.40;;;;;;4976519;28;20041;-77
2023/06/21 05:31:51;;;;;;;7.68;3.55;;;17.40;76.30;;;;;;4976249;28;20559;-77
2023/06/21 05:34:17;;;;;;;7.72;3.30;;;17.40;76.90;;;;;;4945178;29;20936;-77
2023/06/21 05:36:42;;;;;;;8.95;3.42;;;17.30;77.40;;;;;;4971818;28;20094;-77
2023/06/21 05:39:08;;;;;;;7.18;3.20;;;17.30;77.30;;;;;;4969521;28;20118;-77
2023/06/21 05:41:33;;;;;;;9.27;3.65;;;17.30;77.80;;;;;;4940053;29;20031;-77
2023/06/21 05:43:59;;;;;;;7.45;3.78;;;17.30;77.80;;;;;;4957610;28;20032;-77
2023/06/21 05:46:25;;;;;;;6.75;3.80;;;17.30;77.60;;;;;;4957088;29;20032;-77
2023/06/21 05:48:50;;;;;;;6.93;3.67;;;17.30;77.20;;;;;;4941933;29;20528;-78
2023/06/21 05:51:16;;;;;;;6.13;3.50;;;17.40;77.20;;;;;;4963360;28;20105;-79
2023/06/21 05:53:41;;;;;;;8.30;4.57;;;17.50;77.40;;;;;;4943383;29;20015;-77
2023/06/21 05:56:07;;;;;;;8.18;3.72;;;17.60;77.30;;;;;;4971166;28;20417;-77
2023/06/21 05:58:33;;;;;;;7.38;3.80;;;17.70;77.00;;;;;;4979935;28;20114;-78
2023/06/21 06:00:58;;;;;;;6.72;3.72;;;17.80;76.80;;;;;;4972497;28;20918;-77
2023/06/21 06:03:24;;;;;;;7.40;3.97;;;17.80;77.00;;;;;;4969355;28;20023;-77
2023/06/21 06:05:52;;;;;;;7.93;3.35;;;17.90;77.00;;;;;;4979336;28;20058;-77
2023/06/21 06:08:17;;;;;;;8.25;3.60;;;18.00;76.80;;;;;;4979610;28;20031;-77
2023/06/21 06:10:43;;;;;;;7.13;4.10;;;18.00;76.40;;;;;;4968070;28;20037;-77
2023/06/21 06:13:09;;;;;;;5.97;3.38;;;18.10;77.30;;;;;;4989810;28;20074;-77
2023/06/21 06:15:34;;;;;;;6.90;3.58;;;18.20;76.80;;;;;;4979353;28;20039;-77
2023/06/21 06:18:00;;;;;;;9.05;3.22;;;18.20;77.00;;;;;;4979543;28;20034;-77
2023/06/21 06:20:26;;;;;;;6.93;3.22;;;18.30;77.10;;;;;;4978370;28;20053;-78
2023/06/21 06:22:52;;;;;;;7.53;3.33;;;18.30;77.60;;;;;;4979568;28;20106;-77
2023/06/21 06:25:18;;;;;;;8.30;3.63;;;18.30;77.60;;;;;;4979534;28;20023;-77
2023/06/21 06:27:44;;;;;;;6.50;3.33;;;18.40;77.00;;;;;;4979562;28;20036;-78
2023/06/21 06:30:11;;;;;;;9.77;3.63;;;18.40;77.20;;;;;;4978589;28;20039;-79
2023/06/21 06:32:36;;;;;;;7.28;3.55;;;18.50;77.60;;;;;;4959749;28;20030;-78
2023/06/21 06:35:05;;;;;;;8.20;3.60;;;18.50;77.40;;;;;;4963291;28;20542;-79
2023/06/21 06:37:30;;;;;;;7.40;3.42;;;18.50;77.60;;;;;;4971013;28;20026;-79
2023/06/21 06:39:56;;;;;;;7.32;3.95;;;18.60;77.10;;;;;;4950587;29;20039;-79
2023/06/21 06:42:22;;;;;;;8.07;3.80;;;18.70;77.10;;;;;;4960303;29;20113;-80
2023/06/21 06:44:48;;;;;;;8.57;3.70;;;18.70;76.80;;;;;;4943174;29;20091;-82
2023/06/21 06:47:13;;;;;;;7.43;3.63;;;18.70;77.50;;;;;;4960213;29;20086;-81
2023/06/21 06:49:39;;;;;;;8.65;3.55;;;18.70;77.50;;;;;;4962279;28;20062;-82
2023/06/21 06:52:06;;;;;;;7.95;3.33;;;18.80;77.70;;;;;;4966613;28;20127;-81
2023/06/21 06:54:39;;;;;;;10.38;3.47;;;18.80;78.00;;;;;;4971506;28;20034;-80
2023/06/21 06:57:07;;;;;;;;;;;18.90;77.50;;;;;;4970484;28;20030;-81
2023/06/21 06:59:32;;;;;;;7.63;3.33;;;18.90;77.70;;;;;;4968347;28;19957;-80
2023/06/21 07:01:58;;;;;;;7.55;3.63;;;18.90;77.60;;;;;;4971090;28;20035;-82
2023/06/21 07:04:25;;;;;;;7.55;3.15;;;19.10;77.40;;;;;;4971581;28;20015;-80
2023/06/21 07:06:51;;;;;;;5.85;3.40;;;19.20;77.60;;;;;;4971000;28;20058;-80
2023/06/21 07:09:16;;;;;;;5.60;2.92;;;19.20;77.90;;;;;;4968803;28;20034;-80
2023/06/21 07:11:42;;;;;;;6.72;3.60;;;19.30;77.70;;;;;;4970310;28;20122;-85
2023/06/21 07:14:08;;;;;;;6.45;2.95;;;19.30;77.40;;;;;;4966353;28;20087;-80
2023/06/21 07:16:41;;;;;;;6.43;3.10;;;19.40;77.20;;;;;;4971795;28;20031;-80
2023/06/21 07:19:07;;;;;;;7.05;3.67;;;19.60;76.90;;;;;;4973988;28;20101;-80
2023/06/21 07:21:33;;;;;;;5.90;3.28;;;19.60;76.90;;;;;;4969723;28;20028;-80
2023/06/21 07:23:59;;;;;;;8.90;3.45;;;19.70;76.60;;;;;;4967043;28;20031;-81
2023/06/21 07:26:25;;;;;;;7.63;3.08;;;19.80;76.30;;;;;;4967587;28;20027;-80
2023/06/21 07:28:50;;;;;;;6.07;2.90;;;19.90;75.80;;;;;;4976293;28;20050;-80
2023/06/21 07:31:17;;;;;;;7.35;3.30;;;20.00;75.70;;;;;;4947053;28;20059;-80
2023/06/21 07:33:42;;;;;;;5.10;2.83;;;20.10;75.50;;;;;;4963105;28;20025;-80
2023/06/21 07:36:08;;;;;;;10.05;6.55;;;20.30;75.10;;;;;;4960072;28;20122;-80
2023/06/21 07:38:34;;;;;;;8.10;4.43;;;20.40;74.90;;;;;;4971775;28;20015;-78
2023/06/21 07:40:59;;;;;;;59.35;36.28;;;20.70;74.30;;;;;;4957162;28;20397;-77
2023/06/21 07:43:25;;;;;;;92.28;62.90;;;21.00;73.50;;;;;;4977207;28;20061;-77
2023/06/21 07:45:51;;;;;;;46.20;29.33;;;21.80;71.00;;;;;;4960440;28;20035;-77
2023/06/21 07:48:16;;;;;;;109.70;80.80;;;23.10;67.60;;;;;;4981117;28;20520;-78
2023/06/21 07:50:42;;;;;;;42.75;34.60;;;25.00;61.90;;;;;;4977596;28;20073;-78
2023/06/21 07:53:08;;;;;;;6.60;4.40;;;27.60;54.00;;;;;;4962791;28;20027;-75
2023/06/21 07:55:34;;;;;;;5.22;2.90;;;30.00;49.00;;;;;;4967118;28;20034;-78
2023/06/21 07:58:00;;;;;;;6.22;2.95;;;31.90;42.90;;;;;;4969211;28;20047;-80
2023/06/21 08:00:26;;;;;;;4.20;2.58;;;33.30;41.10;;;;;;4958070;29;20426;-79
2023/06/21 08:02:52;;;;;;;5.22;2.67;;;33.80;38.00;;;;;;4957949;28;20031;-79
2023/06/21 08:05:18;;;;;;;7.13;3.00;;;32.00;41.00;;;;;;4964442;28;20417;-78
2023/06/21 08:07:44;;;;;;;7.22;2.75;;;29.80;44.90;;;;;;4970027;28;20031;-78
2023/06/21 08:10:11;;;;;;;5.22;2.60;;;27.90;47.20;;;;;;4959482;28;20390;-78
2023/06/21 08:12:36;;;;;;;5.47;2.55;;;26.40;51.40;;;;;;4951234;28;20102;-77
2023/06/21 08:15:03;;;;;;;5.90;2.35;;;25.30;54.20;;;;;;4967676;28;20054;-77
2023/06/21 08:17:29;;;;;;;7.25;3.05;;;25.20;54.90;;;;;;4963334;28;20027;-79
2023/06/21 08:19:54;;;;;;;4.78;2.50;;;27.90;49.50;;;;;;4940490;29;20033;-78
2023/06/21 08:22:21;;;;;;;5.00;2.67;;;30.10;44.80;;;;;;4965533;28;20385;-79
2023/06/21 08:24:46;;;;;;;5.35;2.55;;;32.00;41.30;;;;;;4975568;28;20050;-79
2023/06/21 08:27:14;;;;;;;13.85;4.45;;;33.50;38.60;;;;;;4976765;28;20030;-78
2023/06/21 08:29:39;;;;;;;16.38;5.43;;;32.40;37.60;;;;;;4977194;28;20026;-78
2023/06/21 08:32:05;;;;;;;8.90;4.18;;;30.80;41.40;;;;;;4974148;28;20484;-78
2023/06/21 08:34:31;;;;;;;7.07;2.92;;;30.20;42.00;;;;;;4976993;28;20058;-78
2023/06/21 08:36:56;;;;;;;4.32;2.60;;;31.80;40.50;;;;;;4977041;28;20027;-78
2023/06/21 08:39:22;;;;;;;5.85;2.30;;;32.90;37.70;;;;;;4966381;28;20027;-78
2023/06/21 08:41:48;;;;;;;4.95;2.35;;;31.80;38.60;;;;;;4957729;29;20027;-78
2023/06/21 08:44:14;;;;;;;6.45;2.60;;;30.20;41.10;;;;;;4957816;29;20038;-77
2023/06/21 08:46:42;;;;;;;3.95;2.30;;;28.80;43.80;;;;;;4948427;28;20493;-78
2023/06/21 08:49:13;;;;;;;4.75;2.40;;;28.00;46.00;;;;;;4959153;28;20027;-78
2023/06/21 08:51:40;;;;;;;5.15;2.33;;;29.60;43.70;;;;;;4957665;28;20031;-78
2023/06/21 08:54:11;;;;;;;4.13;2.33;;;30.90;41.00;;;;;;4976856;28;20039;-78
2023/06/21 08:57:03;;;;;;;5.85;2.88;;;32.00;40.00;;;;;;4956994;28;20030;-78
2023/06/21 08:59:56;;;;;;;4.90;2.20;;;32.90;37.00;;;;;;4950906;29;20046;-78
2023/06/21 09:02:37;;;;;;;5.30;2.58;;;33.60;35.70;;;;;;4958586;28;20038;-78
2023/06/21 09:05:08;;;;;;;5.18;2.95;;;34.30;34.90;;;;;;4968974;28;20059;-78
2023/06/21 09:07:36;;;;;;;9.52;7.63;;;34.60;34.60;;;;;;4940471;29;20093;-78
2023/06/21 09:10:04;;;;;;;5.32;3.13;;;34.70;34.20;;;;;;4959666;28;20042;-78
2023/06/21 09:12:31;;;;;;;3.88;2.47;;;33.50;35.10;;;;;;4963739;28;20122;-78
2023/06/21 09:14:56;;;;;;;5.50;3.20;;;33.30;34.90;;;;;;4964325;28;20043;-78
2023/06/21 09:17:23;;;;;;;6.57;2.45;;;34.00;34.60;;;;;;4957910;28;20093;-78
2023/06/21 09:19:49;;;;;;;4.47;2.58;;;33.60;34.40;;;;;;4964123;28;20059;-79
2023/06/21 09:22:14;;;;;;;4.45;2.80;;;33.80;35.00;;;;;;4967179;28;20026;-79
2023/06/21 09:24:40;;;;;;;4.55;2.85;;;34.20;33.50;;;;;;4968320;28;20031;-79
2023/06/21 09:27:06;;;;;;;3.83;2.70;;;34.70;34.60;;;;;;4969257;28;20027;-80
2023/06/21 09:29:32;;;;;;;4.63;2.80;;;35.00;32.80;;;;;;4970220;28;20031;-80
2023/06/21 09:31:58;;;;;;;5.60;3.00;;;33.90;33.80;;;;;;4970511;28;20114;-80
2023/06/21 09:34:23;;;;;;;5.72;3.20;;;33.50;34.60;;;;;;4971050;28;20086;-80
2023/06/21 09:36:49;;;;;;;5.15;3.20;;;32.00;36.80;;;;;;4971025;28;20761;-80
2023/06/21 09:39:15;;;;;;;5.15;2.45;;;32.20;38.00;;;;;;4956602;28;20037;-79
2023/06/21 09:41:41;;;;;;;3.83;2.80;;;32.50;36.20;;;;;;4962699;28;20027;-80
2023/06/21 09:44:07;;;;;;;3.63;2.60;;;33.80;34.50;;;;;;4969822;28;20511;-79
2023/06/21 09:46:32;;;;;;;4.95;2.72;;;34.40;33.10;;;;;;4971445;28;20105;-80
2023/06/21 09:49:09;;;;;;;4.53;2.75;;;34.90;32.60;;;;;;4967927;28;20019;-80
2023/06/21 09:51:42;;;;;;;4.50;2.75;;;35.40;32.40;;;;;;4969250;28;20034;-80
2023/06/21 09:54:08;;;;;;;4.07;2.45;;;35.40;31.90;;;;;;4966078;28;20685;-80
2023/06/21 09:56:36;;;;;;;3.88;2.90;;;35.60;31.80;;;;;;4971887;28;20098;-80
2023/06/21 09:59:02;;;;;;;4.90;2.80;;;35.20;31.90;;;;;;4967599;28;20089;-80
2023/06/21 10:01:57;;;;;;;5.03;3.00;;;35.30;32.70;;;;;;4973583;28;20122;-79
2023/06/21 10:04:23;;;;;;;3.97;2.75;;;35.80;32.00;;;;;;4953843;29;20162;-79
2023/06/21 10:06:55;;;;;;;4.47;2.80;;;36.10;31.90;;;;;;4960959;29;20050;-80
2023/06/21 10:09:21;;;;;;;4.05;2.75;;;36.00;31.00;;;;;;4967167;28;20023;-79
2023/06/21 10:11:49;;;;;;;4.00;2.90;;;35.90;30.40;;;;;;4963058;28;20046;-79
2023/06/21 10:14:22;;;;;;;4.38;2.53;;;36.20;30.60;;;;;;4973903;28;20027;-79
2023/06/21 10:16:53;;;;;;;5.10;2.63;;;35.90;30.40;;;;;;4969426;28;20026;-79
2023/06/21 10:19:26;;;;;;;4.13;2.90;;;35.60;31.80;;;;;;4979178;28;20027;-79
2023/06/21 10:21:58;;;;;;;3.83;2.30;;;35.70;31.30;;;;;;4977550;28;20026;-79
2023/06/21 10:24:26;;;;;;;3.97;2.70;;;34.30;32.60;;;;;;4979120;28;20027;-79
2023/06/21 10:26:53;;;;;;;3.83;2.50;;;33.90;33.30;;;;;;4978175;28;20114;-79
2023/06/21 10:29:20;;;;;;;3.97;2.70;;;33.50;34.10;;;;;;4979508;28;20074;-79
2023/06/21 10:31:49;;;;;;;4.90;2.53;;;33.70;33.20;;;;;;4979177;28;20145;-79
2023/06/21 10:34:19;;;;;;;5.65;2.75;;;34.10;33.40;;;;;;4978933;28;20098;-78
2023/06/21 10:36:50;;;;;;;5.68;2.47;;;33.80;33.20;;;;;;4978972;28;20030;-78
2023/06/21 10:39:18;;;;;;;4.60;2.30;;;34.20;34.60;;;;;;4970450;28;20027;-79
2023/06/21 10:41:44;;;;;;;3.95;2.00;;;34.00;33.50;;;;;;4959830;29;20031;-79
2023/06/21 10:44:11;;;;;;;4.43;2.00;;;33.40;33.10;;;;;;4960478;28;20027;-78
2023/06/21 10:46:41;;;;;;;4.03;2.22;;;32.70;34.40;;;;;;4959782;29;20076;-78
2023/06/21 10:49:08;;;;;;;4.90;2.20;;;32.30;35.20;;;;;;4959771;29;20398;-78
2023/06/21 10:51:36;;;;;;;4.47;2.28;;;32.00;36.00;;;;;;4959601;29;20039;-79
2023/06/21 10:54:02;;;;;;;4.43;2.38;;;31.90;37.00;;;;;;4960010;28;20027;-78
2023/06/21 10:56:29;;;;;;;4.55;2.35;;;31.70;37.50;;;;;;4959683;29;20116;-78
2023/06/21 10:58:55;;;;;;;5.03;2.50;;;31.80;39.00;;;;;;4959905;28;20027;-78
2023/06/21 11:01:21;;;;;;;4.90;2.45;;;31.70;37.70;;;;;;4942175;28;20027;-78
2023/06/21 11:03:48;;;;;;;4.78;2.33;;;31.30;38.50;;;;;;4978392;28;20027;-78
2023/06/21 11:06:33;;;;;;;4.72;2.55;;;31.10;39.00;;;;;;4974269;28;20035;-78
2023/06/21 11:09:08;;;;;;;5.18;2.20;;;31.10;39.30;;;;;;4959303;29;20074;-78
2023/06/21 11:11:36;;;;;;;4.95;2.45;;;30.90;38.50;;;;;;4982550;28;20076;-78
2023/06/21 11:14:05;;;;;;;4.60;2.08;;;30.70;38.60;;;;;;4959341;29;20027;-78
2023/06/21 11:16:39;;;;;;;5.00;2.20;;;30.60;39.40;;;;;;4959516;29;20027;-78
2023/06/21 11:19:13;;;;;;;3.92;2.28;;;30.40;39.50;;;;;;4941820;28;20031;-78
2023/06/21 11:21:49;;;;;;;5.43;2.40;;;30.00;36.30;;;;;;4967929;28;20053;-78
2023/06/21 11:24:20;;;;;;;3.45;1.85;;;30.10;39.00;;;;;;4941919;29;20374;-78
2023/06/21 11:27:03;;;;;;;4.50;2.33;;;30.10;40.30;;;;;;4959130;29;20532;-78
2023/06/21 11:29:38;;;;;;;5.25;2.45;;;30.00;40.00;;;;;;4959274;29;20120;-78
2023/06/21 11:32:11;;;;;;;4.20;2.33;;;30.20;40.30;;;;;;4952970;28;20046;-78
2023/06/21 11:34:59;;;;;;;4.22;2.30;;;30.20;39.30;;;;;;4977914;28;20038;-79
2023/06/21 11:37:41;;;;;;;5.97;2.50;;;30.20;40.10;;;;;;4960264;28;20015;-78
2023/06/21 11:40:09;;;;;;;3.90;2.20;;;30.00;40.80;;;;;;4970530;28;20083;-77
2023/06/21 11:42:37;;;;;;;3.88;2.38;;;29.90;39.30;;;;;;4966713;28;20078;-78
2023/06/21 11:45:20;;;;;;;5.55;2.58;;;29.70;43.00;;;;;;4965032;28;20161;-78
2023/06/21 11:48:12;;;;;;;6.35;2.50;;;29.80;40.80;;;;;;4965564;28;20030;-84
2023/06/21 11:50:42;;;;;;;4.97;2.33;;;29.90;40.40;;;;;;4953172;28;20114;-86
2023/06/21 11:53:41;;;;;;;4.97;2.50;;;29.90;41.50;;;;;;4966514;28;20065;-85
2023/06/21 11:56:09;;;;;;;4.93;2.20;;;30.10;40.60;;;;;;4952167;28;20038;-86
2023/06/21 11:58:35;;;;;;;5.53;2.35;;;30.20;38.80;;;;;;4972926;28;20050;-87
2023/06/21 12:01:01;;;;;;;5.20;2.55;;;30.10;39.50;;;;;;4967915;28;20039;-85
2023/06/21 12:03:27;;;;;;;3.72;2.40;;;30.00;39.10;;;;;;4972523;28;20019;-86
2023/06/21 12:05:58;;;;;;;4.80;2.13;;;30.00;40.50;;;;;;4953423;28;20037;-85
2023/06/21 12:08:28;;;;;;;5.88;2.50;;;29.90;38.70;;;;;;4965652;28;20098;-84
2023/06/21 12:10:58;;;;;;;4.47;2.45;;;29.90;38.80;;;;;;4973146;28;20123;-86
2023/06/21 12:13:25;;;;;;;5.72;2.33;;;29.80;39.50;;;;;;4956131;29;20027;-86
2023/06/21 12:15:52;;;;;;;3.97;2.22;;;29.90;38.70;;;;;;4958193;29;20114;-86
2023/06/21 12:18:19;;;;;;;4.32;2.05;;;30.10;39.80;;;;;;4940883;29;20111;-86
2023/06/21 12:20:45;;;;;;;4.50;2.10;;;29.90;38.20;;;;;;4958541;28;20041;-86
2023/06/21 12:23:10;;;;;;;3.97;2.13;;;29.70;39.20;;;;;;4958112;29;20060;-86
2023/06/21 12:25:46;;;;;;;5.53;2.38;;;29.50;39.10;;;;;;4940894;29;20075;-86
2023/06/21 12:28:13;;;;;;;4.43;2.20;;;29.40;40.00;;;;;;4975363;28;20429;-85
2023/06/21 12:31:02;;;;;;;5.63;2.30;;;29.30;40.10;;;;;;4977413;28;20051;-86
2023/06/21 12:33:29;;;;;;;5.13;2.20;;;29.30;39.90;;;;;;4959654;28;20531;-87
2023/06/21 12:36:13;;;;;;;3.55;1.90;;;29.30;38.90;;;;;;4959508;28;20118;-86
2023/06/21 12:38:38;;;;;;;4.40;2.25;;;29.40;39.40;;;;;;4957704;28;20066;-86
2023/06/21 12:41:04;;;;;;;6.05;2.30;;;29.60;39.50;;;;;;4959214;28;20023;-86
2023/06/21 12:43:45;;;;;;;4.82;2.40;;;29.70;38.10;;;;;;4977124;28;20129;-85
2023/06/21 12:46:11;;;;;;;4.25;1.92;;;29.80;39.50;;;;;;4973840;28;20492;-86
2023/06/21 12:48:49;;;;;;;5.10;2.60;;;29.90;40.10;;;;;;4957443;28;20037;-86
2023/06/21 12:51:25;;;;;;;5.13;1.92;;;30.00;39.60;;;;;;4958249;28;20033;-85
2023/06/21 12:53:58;;;;;;;4.10;1.80;;;29.80;39.30;;;;;;4965425;28;20018;-85
2023/06/21 12:56:35;;;;;;;5.45;2.15;;;29.80;38.90;;;;;;4976109;28;20106;-85
2023/06/21 12:59:01;;;;;;;5.47;2.30;;;29.80;38.20;;;;;;4955731;29;20031;-86
2023/06/21 13:01:29;;;;;;;5.72;2.20;;;29.80;37.90;;;;;;4957777;29;20448;-85
2023/06/21 13:03:56;;;;;;;4.35;2.25;;;29.60;37.40;;;;;;4970900;28;20019;-86
2023/06/21 13:06:22;;;;;;;5.25;2.53;;;29.70;38.30;;;;;;4973924;28;20513;-85
2023/06/21 13:08:47;;;;;;;3.78;2.00;;;29.60;37.60;;;;;;4957476;28;20027;-85
2023/06/21 13:11:13;;;;;;;5.10;2.70;;;29.40;39.40;;;;;;4967585;28;20042;-86
2023/06/21 13:13:41;;;;;;;3.90;1.95;;;29.50;39.80;;;;;;4970116;28;20031;-86
2023/06/21 13:16:09;;;;;;;4.60;2.33;;;29.70;39.90;;;;;;4957896;28;20392;-85
2023/06/21 13:18:34;;;;;;;4.53;2.30;;;29.80;37.90;;;;;;4940290;29;20029;-85
2023/06/21 13:21:00;;;;;;;4.97;2.10;;;29.90;38.30;;;;;;4960948;28;20087;-86
2023/06/21 13:23:27;;;;;;;3.88;2.13;;;29.90;38.20;;;;;;4959275;28;20034;-86
2023/06/21 13:25:53;;;;;;;5.55;2.17;;;29.90;38.10;;;;;;4976662;28;20026;-87
2023/06/21 13:28:19;;;;;;;5.18;2.10;;;29.80;38.80;;;;;;4959211;28;20031;-86
2023/06/21 13:30:46;;;;;;;4.90;2.30;;;29.80;37.60;;;;;;4956807;28;20072;-86
2023/06/21 13:33:13;;;;;;;7.00;2.50;;;29.90;38.10;;;;;;4974943;28;20031;-87
2023/06/21 13:35:40;;;;;;;5.32;2.50;;;29.90;38.50;;;;;;4966431;28;20143;-87
2023/06/21 13:38:05;;;;;;;4.45;2.00;;;30.00;40.30;;;;;;4957201;29;20489;-87
2023/06/21 13:40:31;;;;;;;4.38;2.00;;;30.00;41.40;;;;;;4957614;29;20054;-86
2023/06/21 13:42:57;;;;;;;5.20;2.40;;;30.10;39.40;;;;;;4969031;28;20042;-85
2023/06/21 13:45:23;;;;;;;4.47;2.20;;;30.10;39.10;;;;;;4968066;28;20082;-86
2023/06/21 13:47:48;;;;;;;4.65;2.30;;;30.20;39.20;;;;;;4957197;29;20035;-87
2023/06/21 13:50:14;;;;;;;3.88;2.28;;;30.20;38.40;;;;;;4957221;29;20510;-86
2023/06/21 13:52:39;;;;;;;5.13;2.45;;;30.00;39.00;;;;;;4949685;28;20098;-82
2023/06/21 13:55:08;;;;;;;5.22;2.30;;;30.20;39.60;;;;;;4966383;28;20497;-80
2023/06/21 13:57:33;;;;;;;5.18;2.20;;;30.40;38.80;;;;;;4958460;28;20027;-84
2023/06/21 13:59:59;;;;;;;4.22;2.10;;;30.40;37.70;;;;;;4966397;28;20460;-80
2023/06/21 14:02:25;;;;;;;4.70;2.20;;;30.50;38.60;;;;;;4957353;28;20023;-80
2023/06/21 14:04:50;;;;;;;4.03;2.00;;;30.50;38.30;;;;;;4967818;28;20043;-81
2023/06/21 14:07:16;;;;;;;4.38;2.33;;;30.40;38.30;;;;;;4965616;28;20027;-80
2023/06/21 14:09:42;;;;;;;4.15;2.28;;;30.30;39.80;;;;;;4956536;28;20035;-80
2023/06/21 14:12:09;;;;;;;4.72;2.35;;;30.10;38.70;;;;;;4959959;28;20117;-81
2023/06/21 14:14:37;;;;;;;4.35;2.45;;;29.90;39.30;;;;;;4968632;28;20031;-80
2023/06/21 14:17:04;;;;;;;4.30;2.38;;;29.80;39.50;;;;;;4971189;28;20413;-80
2023/06/21 14:19:29;;;;;;;4.60;2.10;;;29.80;39.10;;;;;;4971031;28;20033;-80
2023/06/21 14:21:55;;;;;;;5.05;2.22;;;29.50;39.30;;;;;;4977118;28;20822;-80
2023/06/21 14:24:21;;;;;;;4.80;2.47;;;29.10;38.80;;;;;;4962175;28;20031;-80
2023/06/21 14:26:46;;;;;;;4.75;2.60;;;29.20;39.50;;;;;;4956761;28;20019;-80
2023/06/21 14:29:12;;;;;;;5.35;2.55;;;29.20;40.00;;;;;;4967561;28;20035;-80
2023/06/21 14:31:37;;;;;;;5.10;2.55;;;29.30;38.40;;;;;;4972064;28;20051;-79
2023/06/21 14:34:03;;;;;;;5.55;2.22;;;29.50;39.70;;;;;;4974371;28;20038;-79
2023/06/21 14:36:29;;;;;;;4.60;2.30;;;29.60;38.00;;;;;;4951128;28;20086;-79
2023/06/21 14:38:55;;;;;;;3.90;2.25;;;29.70;40.50;;;;;;4970771;28;20104;-80
2023/06/21 14:41:23;;;;;;;4.78;2.20;;;30.10;39.90;;;;;;4974443;28;20457;-79
2023/06/21 14:43:49;;;;;;;3.97;2.20;;;30.40;39.50;;;;;;4975169;28;20035;-79
2023/06/21 14:46:15;;;;;;;5.03;2.33;;;30.50;38.50;;;;;;4959875;29;20441;-80
2023/06/21 14:48:41;;;;;;;6.20;2.45;;;30.30;35.80;;;;;;4959420;29;20073;-78
2023/06/21 14:51:14;;;;;;;4.72;2.10;;;30.30;36.60;;;;;;4942585;29;20035;-81
2023/06/21 14:53:40;;;;;;;4.78;2.70;;;30.30;37.60;;;;;;4959530;29;20055;-80
2023/06/21 14:56:06;;;;;;;4.07;2.15;;;30.30;38.60;;;;;;4942249;29;20039;-80
2023/06/21 14:58:32;;;;;;;3.92;2.00;;;30.30;37.90;;;;;;4959400;29;20561;-79
2023/06/21 15:00:58;;;;;;;4.72;2.28;;;30.20;38.20;;;;;;4972793;28;20158;-79
2023/06/21 15:03:24;;;;;;;4.50;2.22;;;30.00;38.70;;;;;;4975195;28;20051;-82
2023/06/21 15:05:50;;;;;;;4.45;2.22;;;29.90;39.20;;;;;;4971058;28;20026;-82
2023/06/21 15:08:19;;;;;;;3.97;2.30;;;29.70;38.40;;;;;;4964284;28;20035;-82
2023/06/21 15:10:45;;;;;;;4.90;2.30;;;29.80;38.10;;;;;;4975711;28;20022;-82
2023/06/21 15:13:11;;;;;;;4.60;2.25;;;29.80;39.30;;;;;;4978392;28;20039;-83
2023/06/21 15:15:38;;;;;;;5.03;2.13;;;29.80;38.70;;;;;;4969340;28;20035;-83
2023/06/21 15:18:03;;;;;;;4.90;2.25;;;29.50;38.70;;;;;;4972509;28;20027;-82
2023/06/21 15:20:30;;;;;;;6.05;2.20;;;29.30;39.30;;;;;;4964998;28;20035;-82
2023/06/21 15:22:56;;;;;;;4.55;2.42;;;29.00;39.50;;;;;;4978034;28;20240;-83
2023/06/21 15:25:22;;;;;;;5.10;2.63;;;29.00;39.00;;;;;;4967220;28;20031;-82
2023/06/21 15:27:48;;;;;;;4.32;2.35;;;29.00;38.90;;;;;;4964005;28;20023;-84
2023/06/21 15:30:13;;;;;;;4.47;2.55;;;29.00;39.10;;;;;;4967785;28;20026;-82
2023/06/21 15:32:39;;;;;;;3.83;2.25;;;29.00;40.50;;;;;;4953731;28;20130;-82
2023/06/21 15:35:05;;;;;;;4.55;2.35;;;29.10;39.70;;;;;;4967068;28;20031;-82
2023/06/21 15:37:31;;;;;;;5.82;2.70;;;29.20;39.60;;;;;;4966183;28;20023;-82
2023/06/21 15:39:56;;;;;;;4.85;2.60;;;29.10;39.10;;;;;;4965971;28;20030;-81
2023/06/21 15:42:22;;;;;;;4.53;2.50;;;29.20;40.70;;;;;;4965168;28;20389;-81
2023/06/21 15:44:48;;;;;;;4.63;2.28;;;29.30;39.80;;;;;;4969908;28;20180;-82
2023/06/21 15:47:14;;;;;;;4.90;2.55;;;29.30;40.00;;;;;;4964999;28;20117;-82
2023/06/21 15:49:40;;;;;;;7.22;2.20;;;29.30;38.90;;;;;;4966940;28;20041;-83
2023/06/21 15:52:06;;;;;;;4.45;2.35;;;29.00;38.90;;;;;;4971499;28;20035;-82
2023/06/21 15:54:32;;;;;;;5.68;2.33;;;29.00;39.60;;;;;;4964909;28;20054;-82
2023/06/21 15:56:57;;;;;;;4.43;2.25;;;29.10;39.60;;;;;;4966471;28;20098;-82
2023/06/21 15:59:24;;;;;;;4.35;2.38;;;29.00;40.70;;;;;;4952396;28;20037;-84
2023/06/21 16:01:50;;;;;;;5.15;2.25;;;28.90;39.90;;;;;;4970920;28;20374;-82
2023/06/21 16:04:15;;;;;;;6.32;2.53;;;28.80;40.80;;;;;;4975392;28;20094;-82
2023/06/21 16:06:41;;;;;;;4.45;2.30;;;28.80;39.70;;;;;;4956268;28;20058;-83
2023/06/21 16:09:07;;;;;;;4.15;2.30;;;28.70;39.90;;;;;;4971592;28;20101;-82
2023/06/21 16:11:32;;;;;;;4.40;2.38;;;28.80;40.50;;;;;;4971213;28;20023;-81
2023/06/21 16:13:58;;;;;;;6.10;2.53;;;28.80;41.10;;;;;;4955907;28;20477;-82
2023/06/21 16:16:24;;;;;;;5.00;2.33;;;28.60;41.30;;;;;;4963418;28;20023;-83
2023/06/21 16:18:53;;;;;;;4.85;2.42;;;28.50;41.50;;;;;;4951056;28;20030;-84
2023/06/21 16:21:19;;;;;;;5.18;2.30;;;28.30;41.00;;;;;;4966140;28;20105;-83
2023/06/21 16:23:45;;;;;;;3.83;2.10;;;28.10;40.00;;;;;;4959544;28;20098;-81
2023/06/21 16:26:11;;;;;;;5.38;2.38;;;28.00;41.20;;;;;;4946949;29;20530;-85
2023/06/21 16:28:37;;;;;;;6.13;3.00;;;28.00;42.10;;;;;;4940679;29;20066;-82
2023/06/21 16:31:03;;;;;;;4.25;2.20;;;27.90;41.80;;;;;;4976110;28;20061;-86
2023/06/21 16:33:29;;;;;;;5.22;2.47;;;27.80;40.70;;;;;;4977059;28;20496;-88
2023/06/21 16:35:55;;;;;;;5.18;2.95;;;27.80;41.90;;;;;;4974669;28;20064;-86
2023/06/21 16:38:22;;;;;;;5.35;2.28;;;27.80;42.20;;;;;;4957852;29;20027;-87
2023/06/21 16:40:48;;;;;;;4.40;2.42;;;27.80;43.50;;;;;;4940939;29;20027;-89
2023/06/21 16:43:15;;;;;;;4.07;2.22;;;27.70;42.10;;;;;;4958839;29;20042;-92
2023/06/21 16:45:40;;;;;;;4.82;2.45;;;27.60;42.70;;;;;;4945071;28;20101;-92
2023/06/21 16:48:06;;;;;;;3.70;2.10;;;27.70;41.60;;;;;;4961614;28;20039;-91
2023/06/21 16:50:32;;;;;;;4.22;2.28;;;27.60;42.00;;;;;;4978583;28;20035;-90
2023/06/21 16:52:57;;;;;;;5.30;2.50;;;27.70;42.80;;;;;;4971873;28;20035;-88
2023/06/21 16:55:23;;;;;;;4.10;2.58;;;27.80;43.30;;;;;;4958548;29;20034;-92
2023/06/21 16:57:49;;;;;;;4.93;2.20;;;27.70;44.00;;;;;;4943082;29;20027;-92
2023/06/21 17:00:15;;;;;;;4.57;2.20;;;27.80;43.00;;;;;;4940002;29;20557;-68
2023/06/21 17:02:41;;;;;;;4.65;2.33;;;27.80;43.50;;;;;;4965773;28;20069;-68
2023/06/21 17:05:07;;;;;;;4.40;2.33;;;27.80;42.80;;;;;;4976621;28;20050;-69
2023/06/21 17:07:33;;;;;;;4.93;2.60;;;27.70;43.10;;;;;;4947440;28;20031;-70
2023/06/21 17:09:59;;;;;;;4.45;2.20;;;27.60;43.10;;;;;;4963207;28;20051;-69
2023/06/21 17:12:25;;;;;;;4.15;2.30;;;27.50;42.80;;;;;;4972685;28;20031;-68
2023/06/21 17:14:50;;;;;;;5.88;2.40;;;27.40;44.00;;;;;;4957468;29;20134;-68
2023/06/21 17:17:17;;;;;;;5.88;2.30;;;27.30;44.50;;;;;;4966150;28;20037;-68